createdAt,value
2019-05-23T00:02:48.751Z,99.90
2019-05-23T00:05:46.457Z,99.90
2019-05-23T00:08:18.902Z,99.90
2019-05-23T00:11:01.389Z,99.90
2019-05-23T00:13:49.257Z,99.90
2019-05-23T00:16:21.089Z,99.90
2019-05-23T00:18:51.906Z,99.90
2019-05-23T00:21:20.700Z,99.90
2019-05-23T00:23:49.846Z,99.90
2019-05-23T00:26:18.844Z,99.90
2019-05-23T00:28:48.959Z,99.90
2019-05-23T00:31:55.169Z,99.90
2019-05-23T00:34:25.415Z,99.90
2019-05-23T00:36:54.676Z,99.90
2019-05-23T00:39:24.107Z,99.90
2019-05-23T00:41:53.713Z,99.90
2019-05-23T00:44:22.952Z,99.90
2019-05-23T00:46:52.351Z,99.90
2019-05-23T00:49:21.888Z,99.90
2019-05-23T00:51:52.775Z,99.90
2019-05-23T00:54:21.593Z,99.90
2019-05-23T00:56:50.789Z,99.90
2019-05-23T00:59:27.088Z,99.90
2019-05-23T01:01:52.461Z,99.90
2019-05-23T01:04:21.692Z,99.90
2019-05-23T01:06:50.777Z,99.90
2019-05-23T01:09:19.506Z,99.90
2019-05-23T01:11:48.633Z,99.90
2019-05-23T01:14:18.041Z,99.90
2019-05-23T01:16:47.782Z,99.90
2019-05-23T01:19:16.977Z,99.90
2019-05-23T01:21:58.603Z,99.90
2019-05-23T01:24:31.579Z,99.90
2019-05-23T01:27:01.619Z,99.90
2019-05-23T01:29:37.656Z,99.90
2019-05-23T01:32:12.274Z,99.90
2019-05-23T01:34:41.065Z,99.90
2019-05-23T01:37:10.872Z,99.90
2019-05-23T01:39:39.371Z,99.90
2019-05-23T01:42:09.619Z,99.90
2019-05-23T01:44:38.155Z,99.90
2019-05-23T01:47:08.468Z,99.90
2019-05-23T01:49:36.954Z,99.90
2019-05-23T01:52:06.650Z,99.90
2019-05-23T01:54:35.542Z,99.90
2019-05-23T01:57:05.150Z,99.90
2019-05-23T01:59:34.017Z,99.90
2019-05-23T02:02:03.605Z,99.90
2019-05-23T02:04:32.225Z,99.90
2019-05-23T02:07:00.921Z,99.90
2019-05-23T02:09:30.223Z,99.90
2019-05-23T02:12:01.079Z,99.90
2019-05-23T02:14:29.874Z,99.90
2019-05-23T02:16:59.620Z,99.90
2019-05-23T02:19:28.652Z,99.90
2019-05-23T02:21:58.286Z,99.90
2019-05-23T02:24:27.592Z,99.90
2019-05-23T02:26:56.218Z,99.90
2019-05-23T02:29:25.607Z,99.90
2019-05-23T02:31:54.153Z,99.90
2019-05-23T02:34:22.631Z,99.90
2019-05-23T02:36:51.567Z,99.90
2019-05-23T02:39:42.425Z,99.90
2019-05-23T02:42:21.876Z,99.90
2019-05-23T02:44:50.966Z,99.90
2019-05-23T02:47:29.590Z,99.90
2019-05-23T02:49:59.686Z,99.90
2019-05-23T02:59:52.658Z,99.90
2019-05-23T03:02:54.228Z,99.90
2019-05-23T03:05:25.610Z,99.90
2019-05-23T03:07:56.298Z,99.90
2019-05-23T03:10:28.306Z,99.90
2019-05-23T03:12:58.278Z,99.90
2019-05-23T03:15:27.994Z,99.90
2019-05-23T03:18:00.286Z,99.90
2019-05-23T03:20:29.944Z,99.90
2019-05-23T03:23:04.185Z,99.90
2019-05-23T03:26:15.186Z,99.90
2019-05-23T03:28:43.676Z,99.90
2019-05-23T03:31:29.861Z,99.90
2019-05-23T03:33:51.718Z,99.90
2019-05-23T03:36:21.666Z,99.90
2019-05-23T03:38:51.519Z,99.90
2019-05-23T03:41:21.350Z,99.90
2019-05-23T03:43:50.306Z,99.90
2019-05-23T03:46:21.787Z,99.90
2019-05-23T03:48:52.834Z,99.90
2019-05-23T03:51:23.488Z,99.90
2019-05-23T03:53:53.931Z,99.90
2019-05-23T03:56:22.457Z,99.90
2019-05-23T03:58:53.947Z,99.90
2019-05-23T04:01:24.562Z,99.90
2019-05-23T04:03:54.670Z,99.90
2019-05-23T04:06:23.310Z,99.90
2019-05-23T04:08:53.095Z,99.90
2019-05-23T04:11:21.449Z,99.90
2019-05-23T04:13:50.555Z,99.90
2019-05-23T04:16:19.862Z,99.90
2019-05-23T04:18:48.656Z,99.90
2019-05-23T04:21:21.966Z,99.90
2019-05-23T04:23:50.524Z,99.90
2019-05-23T04:26:20.594Z,99.90
2019-05-23T04:28:49.331Z,99.90
2019-05-23T04:31:18.332Z,99.90
2019-05-23T04:33:46.754Z,99.90
2019-05-23T04:36:15.252Z,99.90
2019-05-23T04:38:44.059Z,99.90
2019-05-23T04:41:12.949Z,99.90
2019-05-23T04:43:41.708Z,99.90
2019-05-23T04:46:10.478Z,99.90
2019-05-23T04:48:38.909Z,99.90
2019-05-23T04:51:08.403Z,99.90
2019-05-23T04:53:37.237Z,99.90
2019-05-23T04:56:05.921Z,99.90
2019-05-23T04:58:36.153Z,99.90
2019-05-23T05:01:04.848Z,99.90
2019-05-23T05:03:33.878Z,99.90
2019-05-23T05:06:03.665Z,99.90
2019-05-23T05:08:32.106Z,99.90
2019-05-23T05:11:00.934Z,99.90
2019-05-23T05:13:29.964Z,99.90
2019-05-23T05:15:58.851Z,99.90
2019-05-23T05:18:28.775Z,99.90
2019-05-23T05:20:57.349Z,99.90
2019-05-23T05:23:25.789Z,99.90
2019-05-23T05:25:54.360Z,99.90
2019-05-23T05:28:22.897Z,99.90
2019-05-23T05:30:51.630Z,99.90
2019-05-23T05:33:20.508Z,99.90
2019-05-23T05:35:49.062Z,99.90
2019-05-23T05:38:18.201Z,99.90
2019-05-23T05:40:46.891Z,99.90
2019-05-23T05:43:15.522Z,99.90
2019-05-23T05:45:44.270Z,99.90
2019-05-23T05:48:13.375Z,99.90
2019-05-23T05:50:42.575Z,99.90
2019-05-23T05:53:11.000Z,99.90
2019-05-23T05:55:39.481Z,99.90
2019-05-23T05:58:07.911Z,99.90
2019-05-23T06:00:56.057Z,99.90
2019-05-23T06:03:24.738Z,99.90
2019-05-23T06:06:11.184Z,99.90
2019-05-23T06:08:42.721Z,99.90
2019-05-23T06:11:12.084Z,99.90
2019-05-23T06:13:40.613Z,99.90
2019-05-23T06:16:09.217Z,99.90
2019-05-23T06:18:37.675Z,99.90
2019-05-23T06:21:07.309Z,99.90
2019-05-23T06:23:37.313Z,99.90
2019-05-23T06:26:05.838Z,99.90
2019-05-23T06:28:34.312Z,99.90
2019-05-23T06:31:03.306Z,99.90
2019-05-23T06:33:32.294Z,99.90
2019-05-23T06:36:01.376Z,99.90
2019-05-23T06:38:30.620Z,99.90
2019-05-23T06:40:59.406Z,99.90
2019-05-23T06:43:28.041Z,99.90
2019-05-23T06:45:58.195Z,99.90
2019-05-23T06:48:27.268Z,99.90
2019-05-23T06:50:55.699Z,99.90
2019-05-23T06:53:24.184Z,99.90
2019-05-23T06:55:52.601Z,99.90
2019-05-23T06:58:22.683Z,99.90
2019-05-23T07:00:51.963Z,99.90
2019-05-23T07:03:20.622Z,99.50
2019-05-23T07:05:49.074Z,98.80
2019-05-23T07:08:19.353Z,98.00
2019-05-23T07:10:47.819Z,96.60
2019-05-23T07:13:17.465Z,96.70
2019-05-23T07:15:46.081Z,94.50
2019-05-23T07:18:14.669Z,92.70
2019-05-23T07:20:43.105Z,92.20
2019-05-23T07:23:12.751Z,91.80
2019-05-23T07:25:41.935Z,90.80
2019-05-23T07:28:29.608Z,90.30
2019-05-23T07:30:58.679Z,89.90
2019-05-23T07:33:27.144Z,88.60
2019-05-23T07:35:56.264Z,87.10
2019-05-23T07:38:24.801Z,85.40
2019-05-23T07:40:54.039Z,86.10
2019-05-23T07:43:22.826Z,83.60
2019-05-23T07:45:54.254Z,81.50
2019-05-23T07:48:22.856Z,80.20
2019-05-23T07:50:51.389Z,78.70
2019-05-23T07:53:33.853Z,81.00
2019-05-23T07:56:02.928Z,79.50
2019-05-23T07:58:31.627Z,74.50
2019-05-23T08:01:02.355Z,74.10
2019-05-23T08:03:33.730Z,73.90
2019-05-23T08:06:03.166Z,68.10
2019-05-23T08:08:31.689Z,67.80
2019-05-23T08:11:00.269Z,65.00
2019-05-23T08:13:29.177Z,65.10
2019-05-23T08:15:57.826Z,65.00
2019-05-23T08:18:26.531Z,65.40
2019-05-23T08:20:55.636Z,65.70
2019-05-23T08:23:24.880Z,63.40
2019-05-23T08:25:53.672Z,62.10
2019-05-23T08:28:22.821Z,64.20
2019-05-23T08:30:51.393Z,62.40
2019-05-23T08:33:19.833Z,62.50
2019-05-23T08:35:48.441Z,64.40
2019-05-23T08:38:18.189Z,61.20
2019-05-23T08:40:47.264Z,58.80
2019-05-23T08:43:15.694Z,58.30
2019-05-23T08:45:44.187Z,59.90
2019-05-23T08:48:13.241Z,59.80
2019-05-23T08:50:41.734Z,60.80
2019-05-23T08:53:10.178Z,58.60
2019-05-23T08:55:38.986Z,57.70
2019-05-23T08:58:08.935Z,57.80
2019-05-23T09:00:40.281Z,58.30
2019-05-23T09:03:09.929Z,58.70
2019-05-23T09:05:40.694Z,59.40
2019-05-23T09:08:11.465Z,59.00
2019-05-23T09:10:41.270Z,59.00
2019-05-23T09:13:10.162Z,59.70
2019-05-23T09:15:38.682Z,59.00
2019-05-23T09:18:07.834Z,59.60
2019-05-23T09:20:37.070Z,58.80
2019-05-23T09:23:05.724Z,57.60
2019-05-23T09:25:34.234Z,57.60
2019-05-23T09:28:03.713Z,56.50
2019-05-23T09:30:32.802Z,57.20
2019-05-23T09:33:01.537Z,55.50
2019-05-23T09:35:31.273Z,56.20
2019-05-23T09:37:59.991Z,55.70
2019-05-23T09:40:28.529Z,55.20
2019-05-23T09:42:57.327Z,55.60
2019-05-23T09:45:26.170Z,56.00
2019-05-23T09:47:54.664Z,56.90
2019-05-23T09:50:23.880Z,56.10
2019-05-23T09:52:52.522Z,54.80
2019-05-23T09:55:21.206Z,53.90
2019-05-23T09:57:50.391Z,54.60
2019-05-23T10:00:23.507Z,52.90
2019-05-23T10:02:52.666Z,52.70
2019-05-23T10:05:40.876Z,53.50
2019-05-23T10:07:52.624Z,54.20
2019-05-23T10:10:22.110Z,53.50
2019-05-23T10:12:51.125Z,52.70
2019-05-23T10:15:44.860Z,54.40
2019-05-23T10:18:17.860Z,54.00
2019-05-23T10:20:46.315Z,53.40
2019-05-23T10:23:15.184Z,53.20
2019-05-23T10:25:43.733Z,51.70
2019-05-23T10:28:12.336Z,50.60
2019-05-23T10:30:41.149Z,51.70
2019-05-23T10:33:12.782Z,53.10
2019-05-23T10:35:56.950Z,52.50
2019-05-23T10:38:12.253Z,52.10
2019-05-23T10:40:41.071Z,50.90
2019-05-23T10:43:09.921Z,50.00
2019-05-23T10:45:38.357Z,50.00
2019-05-23T10:48:07.559Z,51.00
2019-05-23T10:50:44.944Z,51.40
2019-05-23T10:53:06.585Z,51.40
2019-05-23T10:55:35.009Z,51.30
2019-05-23T10:58:04.378Z,50.20
2019-05-23T11:00:33.362Z,50.30
2019-05-23T11:03:02.117Z,50.30
2019-05-23T11:05:30.553Z,49.30
2019-05-23T11:07:59.457Z,49.90
2019-05-23T11:10:28.329Z,51.10
2019-05-23T11:12:56.877Z,50.00
2019-05-23T11:15:25.592Z,49.00
2019-05-23T11:17:54.250Z,50.50
2019-05-23T11:20:22.985Z,50.80
2019-05-23T11:22:51.621Z,50.40
2019-05-23T11:25:20.216Z,49.80
2019-05-23T11:27:48.710Z,51.50
2019-05-23T11:30:26.635Z,50.80
2019-05-23T11:32:55.198Z,50.80
2019-05-23T11:35:24.384Z,51.50
2019-05-23T11:37:52.826Z,49.90
2019-05-23T11:40:21.316Z,51.10
2019-05-23T11:42:52.604Z,51.60
2019-05-23T11:45:21.186Z,53.20
2019-05-23T11:47:49.718Z,53.20
2019-05-23T11:50:18.213Z,53.30
2019-05-23T11:52:46.846Z,53.10
2019-05-23T11:55:15.905Z,54.60
2019-05-23T11:57:44.432Z,54.80
2019-05-23T12:00:17.049Z,54.10
2019-05-23T12:02:46.262Z,53.50
2019-05-23T12:05:19.091Z,54.10
2019-05-23T12:07:47.768Z,53.80
2019-05-23T12:10:16.865Z,54.10
2019-05-23T12:12:45.395Z,54.10
2019-05-23T12:15:18.531Z,54.30
2019-05-23T12:17:47.157Z,54.40
2019-05-23T12:20:16.972Z,53.40
2019-05-23T12:22:45.743Z,53.50
2019-05-23T12:25:21.848Z,54.20
2019-05-23T12:27:44.603Z,54.20
2019-05-23T12:30:14.789Z,55.00
2019-05-23T12:32:43.415Z,54.70
2019-05-23T12:35:12.405Z,55.30
2019-05-23T12:37:41.105Z,55.80
2019-05-23T12:40:11.676Z,54.40
2019-05-23T12:42:40.209Z,54.70
2019-05-23T12:45:08.984Z,54.30
2019-05-23T12:48:06.034Z,55.20
2019-05-23T12:50:40.705Z,54.50
2019-05-23T12:53:10.445Z,55.20
2019-05-23T12:55:38.953Z,54.80
2019-05-23T12:58:07.690Z,55.70
2019-05-23T13:00:46.705Z,55.60
2019-05-23T13:03:15.850Z,56.00
2019-05-23T13:05:44.389Z,57.20
2019-05-23T13:08:13.424Z,57.50
2019-05-23T13:10:41.879Z,56.60
2019-05-23T13:13:10.568Z,56.80
2019-05-23T13:15:39.325Z,56.30
2019-05-23T13:18:08.238Z,55.80
2019-05-23T13:20:38.186Z,55.90
2019-05-23T13:23:07.385Z,56.90
2019-05-23T13:25:36.568Z,56.70
2019-05-23T13:28:05.613Z,57.20
2019-05-23T13:30:34.680Z,57.70
2019-05-23T13:33:03.919Z,57.20
2019-05-23T13:35:33.358Z,59.20
2019-05-23T13:38:01.871Z,58.80
2019-05-23T13:40:31.288Z,57.70
2019-05-23T13:42:59.773Z,58.10
2019-05-23T13:45:28.309Z,59.40
2019-05-23T13:47:56.798Z,60.10
2019-05-23T13:50:25.331Z,60.70
2019-05-23T13:52:53.921Z,60.70
2019-05-23T13:55:23.301Z,58.90
2019-05-23T13:57:51.794Z,58.60
2019-05-23T14:00:20.945Z,58.60
2019-05-23T14:02:49.938Z,58.90
2019-05-23T14:05:19.334Z,59.50
2019-05-23T14:07:48.157Z,60.80
2019-05-23T14:10:17.995Z,61.50
2019-05-23T14:12:47.453Z,60.80
2019-05-23T14:15:20.010Z,60.30
2019-05-23T14:17:49.241Z,60.40
2019-05-23T14:20:17.919Z,60.10
2019-05-23T14:22:52.466Z,61.20
2019-05-23T14:25:21.601Z,61.70
2019-05-23T14:28:09.444Z,61.70
2019-05-23T14:30:57.269Z,62.20
2019-05-23T14:33:54.687Z,63.20
2019-05-23T14:36:57.397Z,62.90
2019-05-23T14:39:32.921Z,63.50
2019-05-23T14:42:32.801Z,62.60
2019-05-23T14:45:01.504Z,63.40
2019-05-23T14:47:44.653Z,63.10
2019-05-23T14:50:33.716Z,63.70
2019-05-23T14:53:03.681Z,63.90
2019-05-23T14:55:32.873Z,63.00
2019-05-23T14:58:01.596Z,64.10
2019-05-23T15:00:30.682Z,63.70
2019-05-23T15:02:59.300Z,64.50
2019-05-23T15:05:27.902Z,65.70
2019-05-23T15:07:56.436Z,64.50
2019-05-23T15:10:25.013Z,64.90
2019-05-23T15:12:53.447Z,64.70
2019-05-23T15:15:22.632Z,66.70
2019-05-23T15:17:51.086Z,65.80
2019-05-23T15:20:20.021Z,65.80
2019-05-23T15:22:48.457Z,66.30
2019-05-23T15:25:18.886Z,66.00
2019-05-23T15:27:47.754Z,65.90
2019-05-23T15:30:16.244Z,66.70
2019-05-23T15:32:45.084Z,66.30
2019-05-23T15:35:13.785Z,66.40
2019-05-23T15:37:42.297Z,66.20
2019-05-23T15:40:10.909Z,65.60
2019-05-23T15:42:39.925Z,65.40
2019-05-23T15:45:08.670Z,66.10
2019-05-23T15:47:37.275Z,66.60
2019-05-23T15:50:11.095Z,66.40
2019-05-23T15:52:50.616Z,65.90
2019-05-23T15:55:50.554Z,65.90
2019-05-23T15:58:41.278Z,64.70
2019-05-23T16:01:16.439Z,64.60
2019-05-23T16:03:50.865Z,64.20
2019-05-23T16:06:21.519Z,64.50
2019-05-23T16:08:49.958Z,64.60
2019-05-23T16:11:18.396Z,64.80
2019-05-23T16:13:46.875Z,64.20
2019-05-23T16:16:15.301Z,64.50
2019-05-23T16:18:44.403Z,64.00
2019-05-23T16:21:13.538Z,64.60
2019-05-23T16:23:42.129Z,63.80
2019-05-23T16:26:11.705Z,65.00
2019-05-23T16:28:40.513Z,66.00
2019-05-23T16:31:09.133Z,66.10
2019-05-23T16:33:38.185Z,65.40
2019-05-23T16:36:07.007Z,64.90
2019-05-23T16:38:36.552Z,64.70
2019-05-23T16:41:05.173Z,64.00
2019-05-23T16:43:33.760Z,63.60
2019-05-23T16:46:02.181Z,64.50
2019-05-23T16:48:30.882Z,63.50
2019-05-23T16:50:59.426Z,63.60
2019-05-23T16:53:28.487Z,63.80
2019-05-23T16:56:17.104Z,65.00
2019-05-23T16:59:04.319Z,64.70
2019-05-23T17:02:06.288Z,65.40
2019-05-23T17:04:42.411Z,65.80
2019-05-23T17:07:32.959Z,66.20
2019-05-23T17:10:09.956Z,66.90
2019-05-23T17:12:45.601Z,67.00
2019-05-23T17:15:36.304Z,67.40
2019-05-23T17:18:19.192Z,68.30
2019-05-23T17:21:01.988Z,67.90
2019-05-23T17:23:55.837Z,68.20
2019-05-23T17:26:33.134Z,68.90
2019-05-23T17:29:02.209Z,69.70
2019-05-23T17:31:34.941Z,69.80
2019-05-23T17:34:03.652Z,70.50
2019-05-23T17:36:32.133Z,70.60
2019-05-23T17:39:00.582Z,71.60
2019-05-23T17:41:29.364Z,70.80
2019-05-23T17:43:57.807Z,70.00
2019-05-23T17:46:26.293Z,68.90
2019-05-23T17:48:55.164Z,68.50
2019-05-23T17:51:24.686Z,67.80
2019-05-23T17:53:53.113Z,66.80
2019-05-23T17:56:21.763Z,65.00
2019-05-23T17:58:50.953Z,63.60
2019-05-23T18:01:20.275Z,62.50
2019-05-23T18:03:49.073Z,61.80
2019-05-23T18:06:17.567Z,61.70
2019-05-23T18:08:46.109Z,62.40
2019-05-23T18:11:16.173Z,61.10
2019-05-23T18:13:44.914Z,61.30
2019-05-23T18:16:13.754Z,61.50
2019-05-23T18:18:42.355Z,61.70
2019-05-23T18:21:12.263Z,61.90
2019-05-23T18:23:40.707Z,62.30
2019-05-23T18:26:09.205Z,62.70
2019-05-23T18:28:37.951Z,63.50
2019-05-23T18:31:15.247Z,63.40
2019-05-23T18:33:44.506Z,64.10
2019-05-23T18:36:13.107Z,65.70
2019-05-23T18:38:41.683Z,64.90
2019-05-23T18:41:10.784Z,65.10
2019-05-23T18:43:39.833Z,64.80
2019-05-23T18:46:13.483Z,64.90
2019-05-23T18:48:42.573Z,65.00
2019-05-23T18:51:11.544Z,66.00
2019-05-23T18:53:41.391Z,65.80
2019-05-23T18:56:11.129Z,66.50
2019-05-23T18:58:40.060Z,67.20
2019-05-23T19:01:25.094Z,67.80
2019-05-23T19:03:56.705Z,68.20
2019-05-23T19:06:27.164Z,68.40
2019-05-23T19:08:57.059Z,69.50
2019-05-23T19:11:27.682Z,69.90
2019-05-23T19:13:58.008Z,70.50
2019-05-23T19:16:29.321Z,71.00
2019-05-23T19:19:00.102Z,70.70
2019-05-23T19:21:30.634Z,70.80
2019-05-23T19:24:00.699Z,71.80
2019-05-23T19:26:30.745Z,72.00
2019-05-23T19:29:00.593Z,73.10
2019-05-23T19:31:31.598Z,73.30
2019-05-23T19:34:01.460Z,73.90
2019-05-23T19:36:32.185Z,74.70
2019-05-23T19:39:02.612Z,75.70
2019-05-23T19:41:37.339Z,76.30
2019-05-23T19:44:05.321Z,76.70
2019-05-23T19:50:01.152Z,76.70
2019-05-23T19:52:31.209Z,77.80
2019-05-23T19:55:01.609Z,77.80
2019-05-23T19:57:33.310Z,77.80
2019-05-23T20:00:03.812Z,78.80
2019-05-23T20:02:48.212Z,79.60
2019-05-23T20:08:37.873Z,82.20
2019-05-23T20:11:08.698Z,83.60
2019-05-23T20:13:40.961Z,83.50
2019-05-23T20:16:36.434Z,83.20
2019-05-23T20:19:34.890Z,83.30
2019-05-23T20:22:30.411Z,86.90
2019-05-23T20:25:01.612Z,86.90
2019-05-23T20:28:06.264Z,87.40
2019-05-23T20:31:05.192Z,86.90
2019-05-23T20:33:48.117Z,86.20
2019-05-23T20:36:28.353Z,85.90
2019-05-23T20:42:33.426Z,86.80
2019-05-23T20:45:13.519Z,87.80
2019-05-23T20:47:46.921Z,87.50
2019-05-23T20:50:19.779Z,88.90
2019-05-23T20:53:03.541Z,90.20
2019-05-23T20:55:53.651Z,90.90
2019-05-23T20:58:32.680Z,91.40
2019-05-23T21:01:26.258Z,92.10
2019-05-23T21:03:59.770Z,93.00
2019-05-23T21:06:42.576Z,93.80
2019-05-23T21:09:11.009Z,95.10
2019-05-23T21:11:39.517Z,96.20
2019-05-23T21:14:08.049Z,97.10
2019-05-23T21:16:36.546Z,97.70
2019-05-23T21:19:04.994Z,98.60
2019-05-23T21:21:33.500Z,98.80
2019-05-23T21:24:02.903Z,98.50
2019-05-23T21:26:31.916Z,97.80
2019-05-23T21:29:00.341Z,98.10
2019-05-23T21:31:29.052Z,98.60
2019-05-23T21:33:57.582Z,99.80
2019-05-23T21:36:26.654Z,99.90
2019-05-23T21:38:55.106Z,99.90
2019-05-23T21:41:23.711Z,99.90
2019-05-23T21:43:54.009Z,99.90
2019-05-23T21:46:22.549Z,99.90
2019-05-23T21:48:51.407Z,99.90
2019-05-23T21:51:20.977Z,99.90
2019-05-23T21:53:51.095Z,99.90
2019-05-23T21:56:19.817Z,99.90
2019-05-23T21:58:48.289Z,99.90
2019-05-23T22:01:41.406Z,99.90
2019-05-23T22:04:29.675Z,99.90
2019-05-23T22:07:02.603Z,99.90
2019-05-23T22:09:31.240Z,99.90
2019-05-23T22:12:00.341Z,99.90
2019-05-23T22:14:28.937Z,99.90
2019-05-23T22:16:57.428Z,99.90
2019-05-23T22:19:28.566Z,99.90
2019-05-23T22:21:57.157Z,99.90
2019-05-23T22:24:25.603Z,99.90
2019-05-23T22:26:54.098Z,99.90
2019-05-23T22:29:22.749Z,99.90
2019-05-23T22:31:51.229Z,99.90
2019-05-23T22:34:39.181Z,99.90
2019-05-23T22:37:32.854Z,99.90
2019-05-23T22:40:02.153Z,99.90
2019-05-23T22:42:31.843Z,99.90
2019-05-23T22:45:00.276Z,99.90
2019-05-23T22:47:29.372Z,99.90
2019-05-23T22:49:57.909Z,99.90
2019-05-23T22:52:26.474Z,99.90
2019-05-23T22:54:54.917Z,99.90
2019-05-23T22:57:23.397Z,99.90
2019-05-23T22:59:51.839Z,99.90
2019-05-23T23:02:20.901Z,99.90
2019-05-23T23:04:49.435Z,99.90
2019-05-23T23:07:17.940Z,99.90
2019-05-23T23:09:46.475Z,99.90
2019-05-23T23:12:14.965Z,99.90
2019-05-23T23:14:43.395Z,99.90
2019-05-23T23:17:11.996Z,99.90
2019-05-23T23:19:40.527Z,99.90
2019-05-23T23:22:11.827Z,99.90
2019-05-23T23:24:40.249Z,99.90
2019-05-23T23:27:08.885Z,99.90
2019-05-23T23:29:37.773Z,99.90
2019-05-23T23:32:06.999Z,99.90
2019-05-23T23:34:35.486Z,99.90
2019-05-23T23:37:04.093Z,99.90
2019-05-23T23:39:32.525Z,99.90
2019-05-23T23:42:01.005Z,99.90
2019-05-23T23:44:34.681Z,99.90
2019-05-23T23:47:22.472Z,99.90
2019-05-23T23:50:08.946Z,99.90
2019-05-23T23:52:55.625Z,99.90
2019-05-23T23:55:42.430Z,99.90
2019-05-23T23:58:10.262Z,99.90
